sensor_id;sensor_type;location;lat;lon;timestamp;temperature;humidity
33023;DHT22;19390;51.460;5.710;2023-02-02T00:00:55;7.90;99.90
33023;DHT22;19390;51.460;5.710;2023-02-02T00:03:21;8.00;99.90
33023;DHT22;19390;51.460;5.710;2023-02-02T00:05:52;8.00;99.90
33023;DHT22;19390;51.460;5.710;2023-02-02T00:08:19;7.90;99.90
33023;DHT22;19390;51.460;5.710;2023-02-02T00:10:45;7.90;99.90
33023;DHT22;19390;51.460;5.710;2023-02-02T00:13:12;7.90;99.90
33023;DHT22;19390;51.460;5.710;2023-02-02T00:15:38;7.90;99.90
33023;DHT22;19390;51.460;5.710;2023-02-02T00:18:03;7.90;99.90
33023;DHT22;19390;51.460;5.710;2023-02-02T00:20:29;7.90;99.90
33023;DHT22;19390;51.460;5.710;2023-02-02T00:22:55;7.90;99.90
33023;DHT22;19390;51.460;5.710;2023-02-02T00:25:21;7.90;99.90
33023;DHT22;19390;51.460;5.710;2023-02-02T00:27:47;7.90;99.90
33023;DHT22;19390;51.460;5.710;2023-02-02T00:30:12;7.90;99.90
33023;DHT22;19390;51.460;5.710;2023-02-02T00:32:38;8.00;99.90
33023;DHT22;19390;51.460;5.710;2023-02-02T00:35:06;7.90;99.90
33023;DHT22;19390;51.460;5.710;2023-02-02T00:37:32;7.90;99.90
33023;DHT22;19390;51.460;5.710;2023-02-02T00:39:57;7.90;99.90
33023;DHT22;19390;51.460;5.710;2023-02-02T00:42:23;7.90;99.90
33023;DHT22;19390;51.460;5.710;2023-02-02T00:44:48;7.90;99.90
33023;DHT22;19390;51.460;5.710;2023-02-02T00:47:33;7.90;99.90
33023;DHT22;19390;51.460;5.710;2023-02-02T00:49:58;7.90;99.90
33023;DHT22;19390;51.460;5.710;2023-02-02T00:52:24;7.90;99.90
33023;DHT22;19390;51.460;5.710;2023-02-02T00:54:49;8.00;99.90
33023;DHT22;19390;51.460;5.710;2023-02-02T00:57:15;8.00;99.90
33023;DHT22;19390;51.460;5.710;2023-02-02T00:59:41;8.00;99.90
33023;DHT22;19390;51.460;5.710;2023-02-02T01:02:09;8.00;99.90
33023;DHT22;19390;51.460;5.710;2023-02-02T01:04:34;7.90;99.90
33023;DHT22;19390;51.460;5.710;2023-02-02T01:07:00;8.00;99.90
33023;DHT22;19390;51.460;5.710;2023-02-02T01:09:26;8.10;99.90
33023;DHT22;19390;51.460;5.710;2023-02-02T01:11:51;8.10;99.90
33023;DHT22;19390;51.460;5.710;2023-02-02T01:14:17;8.10;99.90
33023;DHT22;19390;51.460;5.710;2023-02-02T01:16:43;8.10;99.90
33023;DHT22;19390;51.460;5.710;2023-02-02T01:19:08;8.20;99.90
33023;DHT22;19390;51.460;5.710;2023-02-02T01:21:36;8.20;99.90
33023;DHT22;19390;51.460;5.710;2023-02-02T01:24:02;8.20;99.90
33023;DHT22;19390;51.460;5.710;2023-02-02T01:26:27;8.20;99.90
33023;DHT22;19390;51.460;5.710;2023-02-02T01:28:53;8.20;99.90
33023;DHT22;19390;51.460;5.710;2023-02-02T01:31:19;8.20;99.90
33023;DHT22;19390;51.460;5.710;2023-02-02T01:33:46;8.20;99.90
33023;DHT22;19390;51.460;5.710;2023-02-02T01:36:17;8.20;99.90
33023;DHT22;19390;51.460;5.710;2023-02-02T01:38:44;8.20;99.90
33023;DHT22;19390;51.460;5.710;2023-02-02T01:41:15;8.20;99.90
33023;DHT22;19390;51.460;5.710;2023-02-02T01:46:14;8.20;99.90
33023;DHT22;19390;51.460;5.710;2023-02-02T01:49:15;8.20;99.90
33023;DHT22;19390;51.460;5.710;2023-02-02T01:54:17;8.20;99.90
33023;DHT22;19390;51.460;5.710;2023-02-02T01:56:48;8.20;99.90
33023;DHT22;19390;51.460;5.710;2023-02-02T01:59:16;8.20;99.90
33023;DHT22;19390;51.460;5.710;2023-02-02T02:01:42;8.20;99.90
33023;DHT22;19390;51.460;5.710;2023-02-02T02:04:09;8.20;99.90
33023;DHT22;19390;51.460;5.710;2023-02-02T02:06:35;8.30;99.90
33023;DHT22;19390;51.460;5.710;2023-02-02T02:09:03;8.30;99.90
33023;DHT22;19390;51.460;5.710;2023-02-02T02:11:29;8.20;99.90
33023;DHT22;19390;51.460;5.710;2023-02-02T02:13:58;8.20;99.90
33023;DHT22;19390;51.460;5.710;2023-02-02T02:23:29;8.20;99.90
33023;DHT22;19390;51.460;5.710;2023-02-02T02:34:42;8.10;99.90
33023;DHT22;19390;51.460;5.710;2023-02-02T02:37:18;8.20;99.90
33023;DHT22;19390;51.460;5.710;2023-02-02T02:39:56;8.20;99.90
33023;DHT22;19390;51.460;5.710;2023-02-02T02:42:26;8.20;99.90
33023;DHT22;19390;51.460;5.710;2023-02-02T02:44:55;8.20;99.90
33023;DHT22;19390;51.460;5.710;2023-02-02T02:47:22;8.20;99.90
33023;DHT22;19390;51.460;5.710;2023-02-02T02:49:50;8.10;99.90
33023;DHT22;19390;51.460;5.710;2023-02-02T02:52:15;8.10;99.90
33023;DHT22;19390;51.460;5.710;2023-02-02T02:54:47;8.20;99.90
33023;DHT22;19390;51.460;5.710;2023-02-02T03:05:58;8.10;99.90
33023;DHT22;19390;51.460;5.710;2023-02-02T03:11:08;8.00;99.90
33023;DHT22;19390;51.460;5.710;2023-02-02T03:13:35;8.10;99.90
33023;DHT22;19390;51.460;5.710;2023-02-02T03:16:00;8.00;99.90
33023;DHT22;19390;51.460;5.710;2023-02-02T03:18:28;8.00;99.90
33023;DHT22;19390;51.460;5.710;2023-02-02T03:20:54;8.00;99.90
33023;DHT22;19390;51.460;5.710;2023-02-02T03:23:20;8.00;99.90
33023;DHT22;19390;51.460;5.710;2023-02-02T03:25:46;8.00;99.90
33023;DHT22;19390;51.460;5.710;2023-02-02T03:28:13;7.90;99.90
33023;DHT22;19390;51.460;5.710;2023-02-02T03:30:40;7.90;99.90
33023;DHT22;19390;51.460;5.710;2023-02-02T03:33:08;7.90;99.90
33023;DHT22;19390;51.460;5.710;2023-02-02T03:35:34;8.00;99.90
33023;DHT22;19390;51.460;5.710;2023-02-02T03:38:00;7.90;99.90
33023;DHT22;19390;51.460;5.710;2023-02-02T03:40:27;7.90;99.90
33023;DHT22;19390;51.460;5.710;2023-02-02T03:42:52;7.80;99.90
33023;DHT22;19390;51.460;5.710;2023-02-02T03:45:18;7.80;99.90
33023;DHT22;19390;51.460;5.710;2023-02-02T03:47:43;7.80;99.90
33023;DHT22;19390;51.460;5.710;2023-02-02T03:50:09;7.80;99.90
33023;DHT22;19390;51.460;5.710;2023-02-02T03:52:35;7.80;99.90
33023;DHT22;19390;51.460;5.710;2023-02-02T03:55:01;7.80;99.90
33023;DHT22;19390;51.460;5.710;2023-02-02T03:57:26;7.90;99.90
33023;DHT22;19390;51.460;5.710;2023-02-02T03:59:52;7.90;99.90
33023;DHT22;19390;51.460;5.710;2023-02-02T04:02:17;7.90;99.90
33023;DHT22;19390;51.460;5.710;2023-02-02T04:04:43;7.90;99.90
33023;DHT22;19390;51.460;5.710;2023-02-02T04:07:08;7.90;99.90
33023;DHT22;19390;51.460;5.710;2023-02-02T04:09:34;7.90;99.90
33023;DHT22;19390;51.460;5.710;2023-02-02T04:12:00;7.90;99.90
33023;DHT22;19390;51.460;5.710;2023-02-02T04:14:25;7.90;99.90
33023;DHT22;19390;51.460;5.710;2023-02-02T04:16:51;8.00;99.90
33023;DHT22;19390;51.460;5.710;2023-02-02T04:19:16;7.90;99.90
33023;DHT22;19390;51.460;5.710;2023-02-02T04:21:42;7.90;99.90
33023;DHT22;19390;51.460;5.710;2023-02-02T04:24:12;7.90;99.90
33023;DHT22;19390;51.460;5.710;2023-02-02T04:26:37;7.90;99.90
33023;DHT22;19390;51.460;5.710;2023-02-02T04:29:03;7.90;99.90
33023;DHT22;19390;51.460;5.710;2023-02-02T04:31:30;7.90;99.90
33023;DHT22;19390;51.460;5.710;2023-02-02T04:33:56;7.90;99.90
33023;DHT22;19390;51.460;5.710;2023-02-02T04:36:22;7.90;99.90
33023;DHT22;19390;51.460;5.710;2023-02-02T04:38:49;8.00;99.90
33023;DHT22;19390;51.460;5.710;2023-02-02T04:41:15;8.00;99.90
33023;DHT22;19390;51.460;5.710;2023-02-02T04:43:41;7.90;99.90
33023;DHT22;19390;51.460;5.710;2023-02-02T04:46:06;7.90;99.90
33023;DHT22;19390;51.460;5.710;2023-02-02T04:48:32;7.90;99.90
33023;DHT22;19390;51.460;5.710;2023-02-02T04:51:02;8.00;99.90
33023;DHT22;19390;51.460;5.710;2023-02-02T04:53:28;8.00;99.90
33023;DHT22;19390;51.460;5.710;2023-02-02T04:55:54;8.00;99.90
33023;DHT22;19390;51.460;5.710;2023-02-02T04:58:19;8.00;99.90
33023;DHT22;19390;51.460;5.710;2023-02-02T05:00:45;7.90;99.90
33023;DHT22;19390;51.460;5.710;2023-02-02T05:03:10;7.90;99.90
33023;DHT22;19390;51.460;5.710;2023-02-02T05:05:36;7.90;99.90
33023;DHT22;19390;51.460;5.710;2023-02-02T05:08:02;7.90;99.90
33023;DHT22;19390;51.460;5.710;2023-02-02T05:10:28;7.90;99.90
33023;DHT22;19390;51.460;5.710;2023-02-02T05:12:54;7.80;99.90
33023;DHT22;19390;51.460;5.710;2023-02-02T05:15:21;7.90;99.90
33023;DHT22;19390;51.460;5.710;2023-02-02T05:17:47;7.90;99.90
33023;DHT22;19390;51.460;5.710;2023-02-02T05:20:13;7.90;99.90
33023;DHT22;19390;51.460;5.710;2023-02-02T05:22:39;8.00;99.90
33023;DHT22;19390;51.460;5.710;2023-02-02T05:25:05;8.00;99.90
33023;DHT22;19390;51.460;5.710;2023-02-02T05:27:34;7.90;99.90
33023;DHT22;19390;51.460;5.710;2023-02-02T05:30:00;8.00;99.90
33023;DHT22;19390;51.460;5.710;2023-02-02T05:32:25;8.00;99.90
33023;DHT22;19390;51.460;5.710;2023-02-02T05:34:54;8.00;99.90
33023;DHT22;19390;51.460;5.710;2023-02-02T05:37:19;8.00;99.90
33023;DHT22;19390;51.460;5.710;2023-02-02T05:39:45;8.00;99.90
33023;DHT22;19390;51.460;5.710;2023-02-02T05:42:11;7.90;99.90
33023;DHT22;19390;51.460;5.710;2023-02-02T05:44:37;7.90;99.90
33023;DHT22;19390;51.460;5.710;2023-02-02T05:47:02;7.90;99.90
33023;DHT22;19390;51.460;5.710;2023-02-02T05:49:28;8.00;99.90
33023;DHT22;19390;51.460;5.710;2023-02-02T05:51:55;8.00;99.90
33023;DHT22;19390;51.460;5.710;2023-02-02T05:54:22;8.00;99.90
33023;DHT22;19390;51.460;5.710;2023-02-02T05:56:50;8.00;99.90
33023;DHT22;19390;51.460;5.710;2023-02-02T05:59:17;8.10;99.90
33023;DHT22;19390;51.460;5.710;2023-02-02T06:01:44;8.00;99.90
33023;DHT22;19390;51.460;5.710;2023-02-02T06:04:10;8.00;99.90
33023;DHT22;19390;51.460;5.710;2023-02-02T06:06:36;8.00;99.90
33023;DHT22;19390;51.460;5.710;2023-02-02T06:09:04;8.10;99.90
33023;DHT22;19390;51.460;5.710;2023-02-02T06:11:30;8.00;99.90
33023;DHT22;19390;51.460;5.710;2023-02-02T06:13:55;8.00;99.90
33023;DHT22;19390;51.460;5.710;2023-02-02T06:16:21;8.00;99.90
33023;DHT22;19390;51.460;5.710;2023-02-02T06:18:47;8.00;99.90
33023;DHT22;19390;51.460;5.710;2023-02-02T06:21:13;8.00;99.90
33023;DHT22;19390;51.460;5.710;2023-02-02T06:23:39;8.00;99.90
33023;DHT22;19390;51.460;5.710;2023-02-02T06:26:11;8.00;99.90
33023;DHT22;19390;51.460;5.710;2023-02-02T06:28:36;8.00;99.90
33023;DHT22;19390;51.460;5.710;2023-02-02T06:31:03;8.00;99.90
33023;DHT22;19390;51.460;5.710;2023-02-02T06:33:30;8.00;99.90
33023;DHT22;19390;51.460;5.710;2023-02-02T06:35:58;8.00;99.90
33023;DHT22;19390;51.460;5.710;2023-02-02T06:38:25;8.00;99.90
33023;DHT22;19390;51.460;5.710;2023-02-02T06:40:51;8.00;99.90
33023;DHT22;19390;51.460;5.710;2023-02-02T06:43:16;8.00;99.90
33023;DHT22;19390;51.460;5.710;2023-02-02T06:45:43;8.00;99.90
33023;DHT22;19390;51.460;5.710;2023-02-02T06:48:09;8.00;99.90
33023;DHT22;19390;51.460;5.710;2023-02-02T06:50:38;8.00;99.90
33023;DHT22;19390;51.460;5.710;2023-02-02T06:53:04;7.90;99.90
33023;DHT22;19390;51.460;5.710;2023-02-02T06:55:30;7.80;99.90
33023;DHT22;19390;51.460;5.710;2023-02-02T06:57:59;8.00;99.90
33023;DHT22;19390;51.460;5.710;2023-02-02T07:00:26;8.00;99.90
33023;DHT22;19390;51.460;5.710;2023-02-02T07:02:52;8.00;99.90
33023;DHT22;19390;51.460;5.710;2023-02-02T07:05:18;8.00;99.90
33023;DHT22;19390;51.460;5.710;2023-02-02T07:07:44;8.00;99.90
33023;DHT22;19390;51.460;5.710;2023-02-02T07:10:10;7.90;99.90
33023;DHT22;19390;51.460;5.710;2023-02-02T07:12:36;7.90;99.90
33023;DHT22;19390;51.460;5.710;2023-02-02T07:15:02;7.90;99.90
33023;DHT22;19390;51.460;5.710;2023-02-02T07:17:28;7.90;99.90
33023;DHT22;19390;51.460;5.710;2023-02-02T07:19:54;7.90;99.90
33023;DHT22;19390;51.460;5.710;2023-02-02T07:22:19;7.90;99.90
33023;DHT22;19390;51.460;5.710;2023-02-02T07:24:45;7.90;99.90
33023;DHT22;19390;51.460;5.710;2023-02-02T07:27:11;7.90;99.90
33023;DHT22;19390;51.460;5.710;2023-02-02T07:29:36;7.90;99.90
33023;DHT22;19390;51.460;5.710;2023-02-02T07:32:02;7.90;99.90
33023;DHT22;19390;51.460;5.710;2023-02-02T07:34:28;7.90;99.90
33023;DHT22;19390;51.460;5.710;2023-02-02T07:36:53;7.90;99.90
33023;DHT22;19390;51.460;5.710;2023-02-02T07:39:28;7.90;99.90
33023;DHT22;19390;51.460;5.710;2023-02-02T07:41:54;7.90;99.90
33023;DHT22;19390;51.460;5.710;2023-02-02T07:44:19;7.90;99.90
33023;DHT22;19390;51.460;5.710;2023-02-02T07:46:46;7.80;99.90
33023;DHT22;19390;51.460;5.710;2023-02-02T07:49:16;7.90;99.90
33023;DHT22;19390;51.460;5.710;2023-02-02T07:51:43;7.90;99.90
33023;DHT22;19390;51.460;5.710;2023-02-02T07:54:09;7.90;99.90
33023;DHT22;19390;51.460;5.710;2023-02-02T07:56:37;7.90;99.90
33023;DHT22;19390;51.460;5.710;2023-02-02T07:59:03;7.90;99.90
33023;DHT22;19390;51.460;5.710;2023-02-02T08:01:29;7.90;99.90
33023;DHT22;19390;51.460;5.710;2023-02-02T08:03:56;7.90;99.90
33023;DHT22;19390;51.460;5.710;2023-02-02T08:06:26;7.90;99.90
33023;DHT22;19390;51.460;5.710;2023-02-02T08:08:57;7.90;99.90
33023;DHT22;19390;51.460;5.710;2023-02-02T08:11:23;7.90;99.90
33023;DHT22;19390;51.460;5.710;2023-02-02T08:13:52;7.90;99.90
33023;DHT22;19390;51.460;5.710;2023-02-02T08:16:18;7.90;99.90
33023;DHT22;19390;51.460;5.710;2023-02-02T08:18:44;7.90;99.90
33023;DHT22;19390;51.460;5.710;2023-02-02T08:21:10;7.90;99.90
33023;DHT22;19390;51.460;5.710;2023-02-02T08:23:37;8.00;99.90
33023;DHT22;19390;51.460;5.710;2023-02-02T08:26:23;8.00;99.90
33023;DHT22;19390;51.460;5.710;2023-02-02T08:28:57;8.10;99.90
33023;DHT22;19390;51.460;5.710;2023-02-02T08:31:32;8.10;99.90
33023;DHT22;19390;51.460;5.710;2023-02-02T08:33:58;8.10;99.90
33023;DHT22;19390;51.460;5.710;2023-02-02T08:36:25;8.10;99.90
33023;DHT22;19390;51.460;5.710;2023-02-02T08:38:51;8.10;99.90
33023;DHT22;19390;51.460;5.710;2023-02-02T08:41:19;8.10;99.90
33023;DHT22;19390;51.460;5.710;2023-02-02T08:43:45;8.10;99.90
33023;DHT22;19390;51.460;5.710;2023-02-02T08:46:12;8.10;99.90
33023;DHT22;19390;51.460;5.710;2023-02-02T08:48:39;8.20;99.90
33023;DHT22;19390;51.460;5.710;2023-02-02T08:51:05;8.20;99.90
33023;DHT22;19390;51.460;5.710;2023-02-02T08:53:32;8.20;99.90
33023;DHT22;19390;51.460;5.710;2023-02-02T08:55:58;8.20;99.90
33023;DHT22;19390;51.460;5.710;2023-02-02T08:58:25;8.10;99.90
33023;DHT22;19390;51.460;5.710;2023-02-02T09:00:51;8.20;99.90
33023;DHT22;19390;51.460;5.710;2023-02-02T09:03:16;8.20;99.90
33023;DHT22;19390;51.460;5.710;2023-02-02T09:05:42;8.20;99.90
33023;DHT22;19390;51.460;5.710;2023-02-02T09:08:08;8.10;99.90
33023;DHT22;19390;51.460;5.710;2023-02-02T09:10:35;8.20;99.90
33023;DHT22;19390;51.460;5.710;2023-02-02T09:13:01;8.20;99.90
33023;DHT22;19390;51.460;5.710;2023-02-02T09:15:27;8.20;99.90
33023;DHT22;19390;51.460;5.710;2023-02-02T09:17:53;8.20;99.90
33023;DHT22;19390;51.460;5.710;2023-02-02T09:20:18;8.20;99.90
33023;DHT22;19390;51.460;5.710;2023-02-02T09:22:44;8.30;99.90
33023;DHT22;19390;51.460;5.710;2023-02-02T09:25:10;8.30;99.90
33023;DHT22;19390;51.460;5.710;2023-02-02T09:27:39;8.30;99.90
33023;DHT22;19390;51.460;5.710;2023-02-02T09:30:06;8.30;99.90
33023;DHT22;19390;51.460;5.710;2023-02-02T09:32:32;8.30;99.90
33023;DHT22;19390;51.460;5.710;2023-02-02T09:34:58;8.40;99.90
33023;DHT22;19390;51.460;5.710;2023-02-02T09:37:25;8.40;99.90
33023;DHT22;19390;51.460;5.710;2023-02-02T09:39:51;8.50;99.90
33023;DHT22;19390;51.460;5.710;2023-02-02T09:42:29;8.50;99.90
33023;DHT22;19390;51.460;5.710;2023-02-02T09:45:06;8.50;99.90
33023;DHT22;19390;51.460;5.710;2023-02-02T09:47:51;8.60;99.90
33023;DHT22;19390;51.460;5.710;2023-02-02T09:53:07;8.70;99.90
33023;DHT22;19390;51.460;5.710;2023-02-02T09:55:39;8.70;99.90
33023;DHT22;19390;51.460;5.710;2023-02-02T10:01:00;8.70;99.90
33023;DHT22;19390;51.460;5.710;2023-02-02T10:03:49;8.70;99.90
33023;DHT22;19390;51.460;5.710;2023-02-02T10:06:30;8.70;99.90
33023;DHT22;19390;51.460;5.710;2023-02-02T10:09:24;8.80;99.90
33023;DHT22;19390;51.460;5.710;2023-02-02T10:14:51;8.90;99.90
33023;DHT22;19390;51.460;5.710;2023-02-02T10:17:42;8.90;99.90
33023;DHT22;19390;51.460;5.710;2023-02-02T10:22:50;8.90;99.90
33023;DHT22;19390;51.460;5.710;2023-02-02T10:25:21;8.80;99.90
33023;DHT22;19390;51.460;5.710;2023-02-02T10:28:05;8.90;99.90
33023;DHT22;19390;51.460;5.710;2023-02-02T10:31:01;8.80;99.90
33023;DHT22;19390;51.460;5.710;2023-02-02T10:33:35;8.80;99.90
33023;DHT22;19390;51.460;5.710;2023-02-02T10:36:23;8.90;99.90
33023;DHT22;19390;51.460;5.710;2023-02-02T10:39:02;8.90;99.90
33023;DHT22;19390;51.460;5.710;2023-02-02T10:42:18;8.90;99.90
33023;DHT22;19390;51.460;5.710;2023-02-02T10:44:52;8.90;99.90
33023;DHT22;19390;51.460;5.710;2023-02-02T10:47:24;8.90;99.90
33023;DHT22;19390;51.460;5.710;2023-02-02T10:52:40;8.90;99.90
33023;DHT22;19390;51.460;5.710;2023-02-02T10:55:31;8.90;99.90
33023;DHT22;19390;51.460;5.710;2023-02-02T11:00:53;8.90;99.90
33023;DHT22;19390;51.460;5.710;2023-02-02T11:03:25;8.90;99.90
33023;DHT22;19390;51.460;5.710;2023-02-02T11:05:51;9.10;99.90
33023;DHT22;19390;51.460;5.710;2023-02-02T11:08:42;9.10;99.90
33023;DHT22;19390;51.460;5.710;2023-02-02T11:13:51;9.10;99.90
33023;DHT22;19390;51.460;5.710;2023-02-02T11:16:21;9.10;99.90
33023;DHT22;19390;51.460;5.710;2023-02-02T11:18:47;9.10;99.90
33023;DHT22;19390;51.460;5.710;2023-02-02T11:23:54;9.40;99.90
33023;DHT22;19390;51.460;5.710;2023-02-02T11:26:22;9.40;99.90
33023;DHT22;19390;51.460;5.710;2023-02-02T11:28:49;9.40;99.90
33023;DHT22;19390;51.460;5.710;2023-02-02T11:31:35;9.40;99.90
33023;DHT22;19390;51.460;5.710;2023-02-02T11:34:14;9.40;99.90
33023;DHT22;19390;51.460;5.710;2023-02-02T11:36:57;9.30;99.90
33023;DHT22;19390;51.460;5.710;2023-02-02T11:39:23;9.20;99.90
33023;DHT22;19390;51.460;5.710;2023-02-02T11:41:48;9.20;99.90
33023;DHT22;19390;51.460;5.710;2023-02-02T11:44:51;9.20;99.90
33023;DHT22;19390;51.460;5.710;2023-02-02T11:47:42;9.20;99.90
33023;DHT22;19390;51.460;5.710;2023-02-02T11:50:21;9.10;99.90
33023;DHT22;19390;51.460;5.710;2023-02-02T11:52:48;9.10;99.90
33023;DHT22;19390;51.460;5.710;2023-02-02T11:55:19;9.10;99.90
33023;DHT22;19390;51.460;5.710;2023-02-02T11:58:20;9.10;99.90
33023;DHT22;19390;51.460;5.710;2023-02-02T12:01:02;9.10;99.90
33023;DHT22;19390;51.460;5.710;2023-02-02T12:03:37;9.10;99.90
33023;DHT22;19390;51.460;5.710;2023-02-02T12:08:47;9.10;99.90
33023;DHT22;19390;51.460;5.710;2023-02-02T12:14:13;9.20;99.90
33023;DHT22;19390;51.460;5.710;2023-02-02T12:30:41;9.10;99.90
33023;DHT22;19390;51.460;5.710;2023-02-02T12:36:00;9.20;99.90
33023;DHT22;19390;51.460;5.710;2023-02-02T12:44:29;9.40;99.90
33023;DHT22;19390;51.460;5.710;2023-02-02T12:52:48;9.20;99.90
33023;DHT22;19390;51.460;5.710;2023-02-02T13:09:10;9.20;99.90
33023;DHT22;19390;51.460;5.710;2023-02-02T13:11:47;9.30;99.90
33023;DHT22;19390;51.460;5.710;2023-02-02T13:14:29;9.30;99.90
33023;DHT22;19390;51.460;5.710;2023-02-02T13:17:07;9.40;99.90
33023;DHT22;19390;51.460;5.710;2023-02-02T13:19:49;9.30;99.90
33023;DHT22;19390;51.460;5.710;2023-02-02T13:22:24;9.30;99.90
33023;DHT22;19390;51.460;5.710;2023-02-02T13:24:55;9.30;99.90
33023;DHT22;19390;51.460;5.710;2023-02-02T13:27:24;9.30;99.90
33023;DHT22;19390;51.460;5.710;2023-02-02T13:30:04;9.30;99.90
33023;DHT22;19390;51.460;5.710;2023-02-02T13:32:37;9.30;99.90
33023;DHT22;19390;51.460;5.710;2023-02-02T13:35:05;9.30;99.90
33023;DHT22;19390;51.460;5.710;2023-02-02T13:38:00;9.30;99.90
33023;DHT22;19390;51.460;5.710;2023-02-02T13:40:30;9.30;99.90
33023;DHT22;19390;51.460;5.710;2023-02-02T13:48:30;9.30;99.90
33023;DHT22;19390;51.460;5.710;2023-02-02T13:57:23;9.20;99.90
33023;DHT22;19390;51.460;5.710;2023-02-02T14:02:38;9.20;99.90
33023;DHT22;19390;51.460;5.710;2023-02-02T14:05:06;9.20;99.90
33023;DHT22;19390;51.460;5.710;2023-02-02T14:07:54;9.20;99.90
33023;DHT22;19390;51.460;5.710;2023-02-02T14:10:27;9.20;99.90
33023;DHT22;19390;51.460;5.710;2023-02-02T14:12:54;9.20;99.90
33023;DHT22;19390;51.460;5.710;2023-02-02T14:15:38;9.20;99.90
33023;DHT22;19390;51.460;5.710;2023-02-02T14:18:04;9.20;99.90
33023;DHT22;19390;51.460;5.710;2023-02-02T14:20:43;9.20;99.90
33023;DHT22;19390;51.460;5.710;2023-02-02T14:26:46;9.20;99.90
33023;DHT22;19390;51.460;5.710;2023-02-02T14:34:54;9.20;99.90
33023;DHT22;19390;51.460;5.710;2023-02-02T14:45:29;9.10;99.90
33023;DHT22;19390;51.460;5.710;2023-02-02T14:50:43;8.90;99.90
33023;DHT22;19390;51.460;5.710;2023-02-02T14:53:26;8.80;99.90
33023;DHT22;19390;51.460;5.710;2023-02-02T15:06:34;8.50;99.90
33023;DHT22;19390;51.460;5.710;2023-02-02T15:22:40;8.60;99.90
33023;DHT22;19390;51.460;5.710;2023-02-02T15:28:17;8.60;99.90
33023;DHT22;19390;51.460;5.710;2023-02-02T15:30:49;8.60;99.90
33023;DHT22;19390;51.460;5.710;2023-02-02T15:33:29;8.60;99.90
33023;DHT22;19390;51.460;5.710;2023-02-02T15:35:58;8.60;99.90
33023;DHT22;19390;51.460;5.710;2023-02-02T15:38:32;8.50;99.90
33023;DHT22;19390;51.460;5.710;2023-02-02T15:41:06;8.50;99.90
33023;DHT22;19390;51.460;5.710;2023-02-02T15:43:37;8.50;99.90
33023;DHT22;19390;51.460;5.710;2023-02-02T15:46:06;8.50;99.90
33023;DHT22;19390;51.460;5.710;2023-02-02T15:48:34;8.50;99.90
33023;DHT22;19390;51.460;5.710;2023-02-02T15:51:06;8.50;99.90
33023;DHT22;19390;51.460;5.710;2023-02-02T15:58:53;8.60;99.90
33023;DHT22;19390;51.460;5.710;2023-02-02T16:01:22;8.60;99.90
33023;DHT22;19390;51.460;5.710;2023-02-02T16:03:56;8.60;99.90
33023;DHT22;19390;51.460;5.710;2023-02-02T16:06:25;8.60;99.90
33023;DHT22;19390;51.460;5.710;2023-02-02T16:08:51;8.60;99.90
33023;DHT22;19390;51.460;5.710;2023-02-02T16:11:20;8.60;99.90
33023;DHT22;19390;51.460;5.710;2023-02-02T16:14:03;8.70;99.90
33023;DHT22;19390;51.460;5.710;2023-02-02T16:16:32;8.60;99.90
33023;DHT22;19390;51.460;5.710;2023-02-02T16:21:29;8.60;99.90
33023;DHT22;19390;51.460;5.710;2023-02-02T16:23:56;8.70;99.90
33023;DHT22;19390;51.460;5.710;2023-02-02T16:26:26;9.00;99.90
33023;DHT22;19390;51.460;5.710;2023-02-02T16:28:53;8.70;99.90
33023;DHT22;19390;51.460;5.710;2023-02-02T16:31:19;8.80;99.90
33023;DHT22;19390;51.460;5.710;2023-02-02T16:33:44;9.00;99.90
33023;DHT22;19390;51.460;5.710;2023-02-02T16:36:22;8.70;99.90
33023;DHT22;19390;51.460;5.710;2023-02-02T16:38:49;8.60;99.90
33023;DHT22;19390;51.460;5.710;2023-02-02T16:41:27;8.60;99.90
33023;DHT22;19390;51.460;5.710;2023-02-02T16:43:53;8.60;99.90
33023;DHT22;19390;51.460;5.710;2023-02-02T16:46:39;8.60;99.90
33023;DHT22;19390;51.460;5.710;2023-02-02T16:49:16;8.60;99.90
33023;DHT22;19390;51.460;5.710;2023-02-02T16:51:44;8.60;99.90
33023;DHT22;19390;51.460;5.710;2023-02-02T16:54:17;8.60;99.90
33023;DHT22;19390;51.460;5.710;2023-02-02T16:56:46;8.60;99.90
33023;DHT22;19390;51.460;5.710;2023-02-02T17:01:50;8.60;99.90
33023;DHT22;19390;51.460;5.710;2023-02-02T17:04:25;8.60;99.90
33023;DHT22;19390;51.460;5.710;2023-02-02T17:06:53;8.60;99.90
33023;DHT22;19390;51.460;5.710;2023-02-02T17:09:40;8.60;99.90
33023;DHT22;19390;51.460;5.710;2023-02-02T17:14:59;8.60;99.90
33023;DHT22;19390;51.460;5.710;2023-02-02T17:17:28;8.60;99.90
33023;DHT22;19390;51.460;5.710;2023-02-02T17:19:54;8.60;99.90
33023;DHT22;19390;51.460;5.710;2023-02-02T17:22:22;8.70;99.90
33023;DHT22;19390;51.460;5.710;2023-02-02T17:24:50;8.60;99.90
33023;DHT22;19390;51.460;5.710;2023-02-02T17:27:23;8.70;99.90
33023;DHT22;19390;51.460;5.710;2023-02-02T17:29:50;8.70;99.90
33023;DHT22;19390;51.460;5.710;2023-02-02T17:32:18;8.70;99.90
33023;DHT22;19390;51.460;5.710;2023-02-02T17:34:44;8.70;99.90
33023;DHT22;19390;51.460;5.710;2023-02-02T17:37:10;8.70;99.90
33023;DHT22;19390;51.460;5.710;2023-02-02T17:39:36;8.70;99.90
33023;DHT22;19390;51.460;5.710;2023-02-02T17:42:03;8.70;99.90
33023;DHT22;19390;51.460;5.710;2023-02-02T17:44:28;8.70;99.90
33023;DHT22;19390;51.460;5.710;2023-02-02T17:46:54;8.60;99.90
33023;DHT22;19390;51.460;5.710;2023-02-02T17:49:19;8.70;99.90
33023;DHT22;19390;51.460;5.710;2023-02-02T17:51:45;8.70;99.90
33023;DHT22;19390;51.460;5.710;2023-02-02T17:54:12;8.60;99.90
33023;DHT22;19390;51.460;5.710;2023-02-02T17:56:38;8.60;99.90
33023;DHT22;19390;51.460;5.710;2023-02-02T17:59:04;8.60;99.90
33023;DHT22;19390;51.460;5.710;2023-02-02T18:01:30;8.60;99.90
33023;DHT22;19390;51.460;5.710;2023-02-02T18:03:56;8.60;99.90
33023;DHT22;19390;51.460;5.710;2023-02-02T18:06:27;8.60;99.90
33023;DHT22;19390;51.460;5.710;2023-02-02T18:08:53;8.60;99.90
33023;DHT22;19390;51.460;5.710;2023-02-02T18:11:19;8.60;99.90
33023;DHT22;19390;51.460;5.710;2023-02-02T18:13:44;8.60;99.90
33023;DHT22;19390;51.460;5.710;2023-02-02T18:16:13;8.60;99.90
33023;DHT22;19390;51.460;5.710;2023-02-02T18:18:39;8.50;99.90
33023;DHT22;19390;51.460;5.710;2023-02-02T18:21:09;8.50;99.90
33023;DHT22;19390;51.460;5.710;2023-02-02T18:23:37;8.50;99.90
33023;DHT22;19390;51.460;5.710;2023-02-02T18:26:18;8.60;99.90
33023;DHT22;19390;51.460;5.710;2023-02-02T18:28:45;8.60;99.90
33023;DHT22;19390;51.460;5.710;2023-02-02T18:31:14;8.50;99.90
33023;DHT22;19390;51.460;5.710;2023-02-02T18:33:41;8.50;99.90
33023;DHT22;19390;51.460;5.710;2023-02-02T18:36:09;8.50;99.90
33023;DHT22;19390;51.460;5.710;2023-02-02T18:38:36;8.60;99.90
33023;DHT22;19390;51.460;5.710;2023-02-02T18:41:02;8.50;99.90
33023;DHT22;19390;51.460;5.710;2023-02-02T18:43:28;8.50;99.90
33023;DHT22;19390;51.460;5.710;2023-02-02T18:45:59;8.50;99.90
33023;DHT22;19390;51.460;5.710;2023-02-02T18:48:25;8.50;99.90
33023;DHT22;19390;51.460;5.710;2023-02-02T18:50:50;8.50;99.90
33023;DHT22;19390;51.460;5.710;2023-02-02T18:53:16;8.50;99.90
33023;DHT22;19390;51.460;5.710;2023-02-02T18:55:42;8.60;99.90